Time;durP1;ratioP1;P1;durP2;ratioP2;P2;SDS_P1;SDS_P2;PMS_P1;PMS_P2;Temp;Humidity;BMP_temperature;BMP_pressure;BME280_temperature;BME280_humidity;BME280_pressure;Samples;Min_cycle;Max_cycle;Signal;HPM_P1;HPM_P2
2024/01/04 00:00:45;;;;;;;2.03;0.90;;;;;;;10.64;100.00;101304.44;4974197;28;20164;-86
2024/01/04 00:03:14;;;;;;;10.55;1.77;;;;;;;10.60;100.00;101306.84;4969016;28;20113;-86
2024/01/04 00:05:44;;;;;;;3.85;1.20;;;;;;;10.53;100.00;101305.72;4967768;28;20063;-84
2024/01/04 00:08:20;;;;;;;5.45;1.30;;;;;;;10.50;100.00;101310.78;4971551;28;20051;-86
2024/01/04 00:10:49;;;;;;;4.18;1.40;;;;;;;10.48;100.00;101317.59;4977067;28;20050;-85
2024/01/04 00:13:18;;;;;;;8.50;1.65;;;;;;;10.47;100.00;101315.84;4968290;28;20051;-84
2024/01/04 00:15:56;;;;;;;4.32;1.88;;;;;;;10.43;100.00;101313.97;4973897;28;20078;-88
2024/01/04 00:18:25;;;;;;;5.82;1.60;;;;;;;10.39;100.00;101318.13;4972583;28;20052;-87
2024/01/04 00:20:56;;;;;;;3.63;1.50;;;;;;;10.40;100.00;101326.75;4976733;28;20102;-86
2024/01/04 00:23:24;;;;;;;7.70;1.60;;;;;;;10.36;100.00;101317.13;4977498;28;20062;-86
2024/01/04 00:25:58;;;;;;;7.82;1.63;;;;;;;10.35;100.00;101333.47;4977594;28;20066;-86
2024/01/04 00:28:27;;;;;;;7.05;1.80;;;;;;;10.34;100.00;101337.75;4977308;28;20138;-87
2024/01/04 00:30:56;;;;;;;5.60;1.58;;;;;;;10.33;100.00;101327.34;4973951;28;20042;-84
2024/01/04 00:33:25;;;;;;;4.25;1.20;;;;;;;10.23;100.00;101326.94;4967964;28;20133;-83
2024/01/04 00:36:03;;;;;;;4.82;1.35;;;;;;;10.20;100.00;101337.19;4969706;28;20078;-84
2024/01/04 00:38:31;;;;;;;4.75;1.30;;;;;;;10.16;100.00;101337.88;4975967;28;20071;-86
2024/01/04 00:41:02;;;;;;;4.15;0.98;;;;;;;10.07;100.00;101335.78;4970994;28;20129;-84
2024/01/04 00:43:31;;;;;;;4.90;1.45;;;;;;;10.04;100.00;101342.56;4981177;28;20050;-86
2024/01/04 00:46:02;;;;;;;4.47;1.65;;;;;;;9.96;100.00;101339.63;4979294;28;20070;-85
2024/01/04 00:48:31;;;;;;;4.88;1.23;;;;;;;9.95;100.00;101334.41;4969948;28;20051;-83
2024/01/04 00:51:02;;;;;;;7.50;1.38;;;;;;;9.94;100.00;101338.72;4973303;28;20054;-82
2024/01/04 00:53:30;;;;;;;4.95;0.98;;;;;;;9.89;100.00;101345.38;4971093;28;20059;-80
2024/01/04 00:56:01;;;;;;;5.32;0.95;;;;;;;9.87;100.00;101357.34;4968755;28;20057;-82
2024/01/04 00:58:30;;;;;;;3.92;1.15;;;;;;;9.78;100.00;101351.78;4971112;28;20139;-84
2024/01/04 01:00:59;;;;;;;9.60;1.52;;;;;;;9.76;100.00;101354.34;4972974;28;20046;-83
2024/01/04 01:03:27;;;;;;;2.85;0.75;;;;;;;9.75;100.00;101362.88;4968775;28;20568;-85
2024/01/04 01:05:56;;;;;;;2.25;0.90;;;;;;;9.70;100.00;101366.09;4968644;28;20065;-85
2024/01/04 01:08:31;;;;;;;4.65;1.08;;;;;;;9.65;100.00;101365.91;4963967;28;20055;-83
2024/01/04 01:10:59;;;;;;;1.75;0.95;;;;;;;9.57;100.00;101367.25;4968546;28;20050;-86
2024/01/04 01:13:28;;;;;;;5.60;0.98;;;;;;;9.52;100.00;101354.16;4963576;28;20055;-84
2024/01/04 01:15:57;;;;;;;2.55;0.80;;;;;;;9.52;100.00;101361.91;4964363;28;20138;-88
2024/01/04 01:18:26;;;;;;;3.25;1.08;;;;;;;9.49;100.00;101363.50;4969270;28;20109;-85
2024/01/04 01:20:55;;;;;;;1.63;1.08;;;;;;;9.49;100.00;101368.66;4968201;28;20142;-85
2024/01/04 01:23:26;;;;;;;6.75;1.48;;;;;;;9.49;100.00;101373.81;4966123;28;20045;-83
2024/01/04 01:25:55;;;;;;;4.35;1.20;;;;;;;9.44;100.00;101366.75;4964714;28;20058;-85
2024/01/04 01:28:23;;;;;;;4.97;1.10;;;;;;;9.46;100.00;101376.25;4972741;28;20050;-84
2024/01/04 01:31:01;;;;;;;3.42;0.70;;;;;;;9.44;100.00;101377.06;4967862;28;20043;-88
2024/01/04 01:33:30;;;;;;;1.95;0.73;;;;;;;9.38;100.00;101366.47;4959009;28;20482;-85
2024/01/04 01:36:01;;;;;;;2.45;0.70;;;;;;;9.34;100.00;101374.88;4969237;28;20046;-84
2024/01/04 01:38:34;;;;;;;1.63;0.70;;;;;;;9.31;100.00;101361.84;4963998;28;20595;-85
2024/01/04 01:41:03;;;;;;;2.28;0.63;;;;;;;9.32;100.00;101361.06;4961705;28;20133;-85
2024/01/04 01:43:32;;;;;;;1.48;0.85;;;;;;;9.36;100.00;101368.09;4974844;28;20050;-84
2024/01/04 01:46:01;;;;;;;4.50;0.88;;;;;;;9.35;100.00;101368.03;4968366;28;20055;-82
2024/01/04 01:48:42;;;;;;;3.85;0.90;;;;;;;9.32;100.00;101366.22;4964501;28;20044;-86
2024/01/04 01:51:13;;;;;;;1.48;0.47;;;;;;;9.26;100.00;101371.09;4967589;28;20515;-87
2024/01/04 01:53:45;;;;;;;4.70;0.63;;;;;;;9.23;100.00;101368.34;4965588;28;20043;-85
2024/01/04 01:56:17;;;;;;;3.25;0.30;;;;;;;9.20;100.00;101363.06;4969376;28;20523;-86
2024/01/04 01:58:47;;;;;;;0.20;0.20;;;;;;;9.14;100.00;101360.19;4959696;28;20270;-88
2024/01/04 02:01:20;;;;;;;0.75;0.22;;;;;;;9.16;100.00;101374.06;4969970;28;20054;-88
2024/01/04 02:06:31;;;;;;;4.25;0.68;;;;;;;9.14;100.00;101365.38;4968056;28;20059;-88
2024/01/04 02:11:49;;;;;;;1.02;0.30;;;;;;;9.12;100.00;101365.31;4961284;28;20075;-88
2024/01/04 02:22:04;;;;;;;1.23;0.20;;;;;;;9.01;100.00;101369.97;5407497;23;20041;-86
2024/01/04 02:24:46;;;;;;;1.92;0.38;;;;;;;8.97;100.00;101368.06;4985743;28;20134;-84
2024/01/04 03:03:22;;;;;;;5.22;0.50;;;;;;;9.04;100.00;101425.16;5890032;23;20268;-86
2024/01/04 03:05:56;;;;;;;3.83;0.40;;;;;;;9.02;100.00;101423.41;4976738;28;20055;-87
2024/01/04 03:08:25;;;;;;;1.33;0.57;;;;;;;9.02;100.00;101427.66;4978940;28;20120;-86
2024/01/04 03:10:55;;;;;;;0.65;0.55;;;;;;;9.04;100.00;101427.72;4970102;28;20054;-87
2024/01/04 03:13:24;;;;;;;2.08;0.30;;;;;;;9.05;100.00;101421.75;4971410;28;20062;-87
2024/01/04 03:15:56;;;;;;;3.33;0.77;;;;;;;9.02;100.00;101418.22;4971616;28;20062;-86
2024/01/04 03:18:27;;;;;;;0.82;0.30;;;;;;;9.07;100.00;101431.34;4972672;28;20055;-85
2024/01/04 03:20:56;;;;;;;1.17;0.30;;;;;;;9.05;100.00;101427.81;4972982;28;20057;-86
2024/01/04 03:23:25;;;;;;;5.00;0.45;;;;;;;9.05;100.00;101432.06;4977007;28;20098;-87
2024/01/04 03:26:04;;;;;;;0.70;0.25;;;;;;;9.00;100.00;101435.34;4978899;28;20051;-87
2024/01/04 03:28:33;;;;;;;0.98;0.20;;;;;;;9.00;100.00;101443.09;4971973;28;20121;-85
2024/01/04 03:31:02;;;;;;;3.13;0.40;;;;;;;8.99;100.00;101449.03;4966413;28;20529;-86
2024/01/04 03:33:33;;;;;;;1.30;0.22;;;;;;;8.98;100.00;101452.44;4973950;28;20094;-86
2024/01/04 03:36:12;;;;;;;0.30;0.30;;;;;;;9.00;100.00;101449.91;4972596;28;20057;-87
2024/01/04 03:38:41;;;;;;;0.50;0.30;;;;;;;8.97;100.00;101445.50;4974680;28;20062;-87
2024/01/04 03:41:10;;;;;;;1.40;0.40;;;;;;;8.93;100.00;101433.28;4972879;28;20066;-86
2024/01/04 03:43:42;;;;;;;1.83;0.60;;;;;;;8.98;100.00;101447.28;4974794;28;20071;-86
2024/01/04 03:46:11;;;;;;;1.70;0.40;;;;;;;9.04;100.00;101456.13;4973319;28;20054;-88
2024/01/04 03:48:43;;;;;;;0.63;0.30;;;;;;;9.03;100.00;101455.25;4973653;28;20054;-88
2024/01/04 03:51:13;;;;;;;2.30;0.67;;;;;;;9.06;100.00;101454.50;4977058;28;20179;-87
2024/01/04 03:53:52;;;;;;;2.40;0.40;;;;;;;9.11;100.00;101468.50;4978463;28;20054;-86
2024/01/04 03:56:21;;;;;;;2.55;0.50;;;;;;;9.16;100.00;101461.84;4978369;28;20047;-88
2024/01/04 03:58:51;;;;;;;1.33;0.45;;;;;;;9.23;100.00;101464.81;4979508;28;20054;-87
2024/01/04 04:01:37;;;;;;;1.27;0.50;;;;;;;9.28;100.00;101469.28;4973799;28;20055;-87
2024/01/04 04:04:09;;;;;;;0.60;0.35;;;;;;;9.26;100.00;101463.19;4982894;28;20082;-86
2024/01/04 04:06:40;;;;;;;3.92;0.57;;;;;;;9.31;100.00;101469.44;4973907;28;20047;-85
2024/01/04 04:09:16;;;;;;;1.27;0.50;;;;;;;9.30;100.00;101476.31;4979499;28;20047;-87
2024/01/04 04:11:46;;;;;;;0.47;0.30;;;;;;;9.26;100.00;101473.50;4974496;28;20137;-85
2024/01/04 04:14:16;;;;;;;0.57;0.43;;;;;;;9.27;100.00;101470.97;4970591;28;20066;-88
2024/01/04 04:16:52;;;;;;;2.28;0.40;;;;;;;9.28;100.00;101472.78;4966563;28;20110;-87
2024/01/04 04:19:25;;;;;;;1.00;0.43;;;;;;;9.26;100.00;101474.38;4971893;28;20085;-87
2024/01/04 04:21:54;;;;;;;2.53;0.45;;;;;;;9.21;100.00;101475.88;4978079;28;20141;-85
2024/01/04 04:24:31;;;;;;;2.20;0.60;;;;;;;9.16;100.00;101469.59;4977026;28;20061;-88
2024/01/04 04:27:01;;;;;;;2.03;0.73;;;;;;;9.16;100.00;101479.94;4973501;28;20046;-85
2024/01/04 04:29:30;;;;;;;3.50;0.73;;;;;;;9.13;100.00;101482.38;4977318;28;20058;-87
2024/01/04 04:31:59;;;;;;;1.02;0.57;;;;;;;9.09;100.00;101478.75;4975944;28;20046;-85
2024/01/04 04:34:32;;;;;;;5.00;0.77;;;;;;;9.05;100.00;101468.22;4980603;28;20050;-87
2024/01/04 04:37:01;;;;;;;3.05;0.70;;;;;;;9.13;100.00;101477.22;4974721;28;20058;-87
2024/01/04 04:39:30;;;;;;;1.33;0.63;;;;;;;9.08;100.00;101473.53;4977807;28;20070;-87
2024/01/04 04:41:59;;;;;;;2.33;0.63;;;;;;;9.05;100.00;101463.03;4975139;28;20078;-87
2024/01/04 04:44:37;;;;;;;0.35;0.35;;;;;;;8.98;100.00;101465.34;4975617;28;20129;-86
2024/01/04 04:47:06;;;;;;;3.15;0.68;;;;;;;8.91;100.00;101460.72;4982357;28;20050;-85
2024/01/04 04:49:37;;;;;;;3.05;0.88;;;;;;;8.89;100.00;101470.09;4983549;28;20062;-87
2024/01/04 04:52:10;;;;;;;3.58;0.45;;;;;;;8.89;100.00;101467.50;4991964;28;20053;-86
2024/01/04 04:54:42;;;;;;;0.60;0.43;;;;;;;8.91;100.00;101463.31;4986020;28;20053;-87
2024/01/04 05:40:12;;;;;;;1.35;0.65;;;;;;;8.70;100.00;101490.63;5325086;23;20141;-84
2024/01/04 05:42:42;;;;;;;2.92;0.60;;;;;;;8.66;100.00;101487.03;4954924;28;20078;-87
2024/01/04 05:45:14;;;;;;;3.15;0.98;;;;;;;8.64;100.00;101485.19;4940505;28;20055;-85
2024/01/04 05:47:45;;;;;;;3.05;0.93;;;;;;;8.56;100.00;101483.09;4947508;29;20059;-86
2024/01/04 05:50:14;;;;;;;0.70;0.50;;;;;;;8.53;100.00;101488.13;4953515;29;20109;-86
2024/01/04 05:52:43;;;;;;;0.85;0.40;;;;;;;8.55;100.00;101489.09;4946915;29;20051;-86
2024/01/04 05:55:15;;;;;;;2.03;0.73;;;;;;;8.51;100.00;101487.16;4947858;28;20057;-85
2024/01/04 05:57:47;;;;;;;4.85;0.70;;;;;;;8.49;100.00;101486.19;4944967;29;20057;-85
2024/01/04 06:00:17;;;;;;;2.92;0.70;;;;;;;8.45;100.00;101484.25;4952944;29;20139;-86
2024/01/04 06:02:47;;;;;;;1.75;0.60;;;;;;;8.43;100.00;101491.06;4945686;29;20051;-86
2024/01/04 06:05:16;;;;;;;5.82;0.95;;;;;;;8.41;100.00;101494.34;4942039;29;20067;-86
2024/01/04 06:07:52;;;;;;;3.20;1.60;;;;;;;8.41;100.00;101496.94;4946911;29;20508;-86
2024/01/04 06:10:24;;;;;;;4.22;0.60;;;;;;;8.40;100.00;101496.06;4945169;28;20051;-87
2024/01/04 06:12:53;;;;;;;4.03;0.65;;;;;;;8.40;100.00;101498.63;4950463;28;20078;-86
2024/01/04 06:15:22;;;;;;;1.17;0.40;;;;;;;8.46;100.00;101503.22;4951474;28;20053;-86
2024/01/04 06:17:54;;;;;;;4.60;0.30;;;;;;;8.46;100.00;101495.50;4954539;28;20139;-85
2024/01/04 06:20:23;;;;;;;2.20;0.73;;;;;;;8.51;100.00;101505.22;4955667;28;20051;-86
2024/01/04 06:22:53;;;;;;;1.23;0.52;;;;;;;8.52;100.00;101506.09;4949547;28;20062;-86
2024/01/04 06:25:34;;;;;;;5.63;0.77;;;;;;;8.51;100.00;101507.78;4951859;29;20055;-86
2024/01/04 06:28:03;;;;;;;4.75;0.55;;;;;;;8.52;100.00;101507.00;4946704;28;20039;-86
2024/01/04 06:30:34;;;;;;;7.95;0.50;;;;;;;8.42;100.00;101494.44;4952254;28;20138;-86
2024/01/04 06:33:03;;;;;;;0.90;0.40;;;;;;;8.46;100.00;101508.38;4950134;28;20062;-86
2024/01/04 06:35:34;;;;;;;0.95;0.50;;;;;;;8.41;100.00;101496.94;4947373;28;20055;-86
2024/01/04 06:38:07;;;;;;;3.03;1.25;;;;;;;8.39;100.00;101507.16;4945640;28;20047;-87
2024/01/04 06:40:39;;;;;;;0.55;0.30;;;;;;;8.34;100.00;101506.94;4951473;28;20055;-86
2024/01/04 06:43:14;;;;;;;2.10;0.60;;;;;;;8.36;100.00;101513.03;4956000;28;20065;-86
2024/01/04 06:45:44;;;;;;;2.47;0.68;;;;;;;8.35;100.00;101518.13;4964597;28;20097;-86
2024/01/04 06:48:13;;;;;;;0.93;0.45;;;;;;;8.30;100.00;101509.28;4947796;29;20055;-86
2024/01/04 06:50:42;;;;;;;0.63;0.40;;;;;;;8.28;100.00;101501.44;4944830;29;20055;-86
2024/01/04 06:53:21;;;;;;;0.98;0.50;;;;;;;8.28;100.00;101498.88;4945268;29;20502;-86
2024/01/04 06:55:52;;;;;;;2.03;0.70;;;;;;;8.23;100.00;101497.75;4953359;28;20485;-86
2024/01/04 06:58:21;;;;;;;1.15;0.30;;;;;;;8.28;100.00;101505.72;4954653;28;20057;-86
2024/01/04 07:00:56;;;;;;;1.02;0.30;;;;;;;8.24;100.00;101503.78;4948740;28;20075;-86
2024/01/04 07:03:25;;;;;;;1.30;0.40;;;;;;;8.24;100.00;101498.63;4952836;29;20059;-85
2024/01/04 07:05:53;;;;;;;1.60;0.65;;;;;;;8.29;100.00;101512.63;4950735;28;20098;-85
2024/01/04 07:08:22;;;;;;;2.78;0.40;;;;;;;8.32;100.00;101502.50;4950288;29;20051;-85
2024/01/04 07:10:58;;;;;;;0.60;0.47;;;;;;;8.34;100.00;101506.03;4951214;28;20055;-85
2024/01/04 07:13:27;;;;;;;0.88;0.73;;;;;;;8.35;100.00;101519.00;4947768;28;20047;-85
2024/01/04 07:15:56;;;;;;;2.90;0.80;;;;;;;8.35;100.00;101507.81;4948404;28;20047;-86
2024/01/04 07:18:25;;;;;;;1.58;0.60;;;;;;;8.32;100.00;101497.34;4949003;28;20516;-85
2024/01/04 07:20:54;;;;;;;2.58;0.90;;;;;;;8.36;100.00;101514.72;4956654;28;20046;-86
2024/01/04 07:23:26;;;;;;;1.63;0.63;;;;;;;8.34;100.00;101506.94;4945680;28;20154;-85
2024/01/04 07:25:56;;;;;;;2.60;0.50;;;;;;;8.32;100.00;101503.38;4952163;29;20066;-85
2024/01/04 07:28:25;;;;;;;1.35;0.75;;;;;;;8.33;100.00;101499.09;4949821;28;20051;-85
2024/01/04 07:30:54;;;;;;;1.23;0.35;;;;;;;8.26;100.00;101491.88;4953364;28;20043;-85
2024/01/04 07:33:26;;;;;;;0.47;0.20;;;;;;;8.21;100.00;101485.59;4953352;29;20067;-85
2024/01/04 07:35:54;;;;;;;1.10;0.40;;;;;;;8.22;100.00;101484.78;4954173;29;20063;-85
2024/01/04 07:38:23;;;;;;;2.00;0.38;;;;;;;8.27;100.00;101501.34;4950923;28;20059;-86
2024/01/04 07:40:52;;;;;;;2.28;0.65;;;;;;;8.29;100.00;101507.47;4937291;29;20055;-85
2024/01/04 07:43:34;;;;;;;2.55;0.60;;;;;;;8.28;100.00;101495.41;4934572;29;20134;-85
2024/01/04 07:46:03;;;;;;;2.97;0.63;;;;;;;8.29;100.00;101492.00;4942925;29;20124;-86
2024/01/04 07:48:32;;;;;;;3.60;0.73;;;;;;;8.25;100.00;101483.25;4936071;29;20048;-86
2024/01/04 07:51:09;;;;;;;3.40;1.15;;;;;;;8.28;100.00;101485.09;4928694;29;20052;-86
2024/01/04 07:53:40;;;;;;;1.65;0.60;;;;;;;8.28;100.00;101492.84;4930015;29;20040;-85
2024/01/04 07:56:09;;;;;;;4.10;0.93;;;;;;;8.29;100.00;101505.81;4935687;29;20784;-85
2024/01/04 07:58:42;;;;;;;1.25;0.60;;;;;;;8.31;100.00;101511.03;4926819;29;20148;-85
2024/01/04 08:01:14;;;;;;;1.77;0.55;;;;;;;8.31;100.00;101500.72;4935017;29;20111;-84
2024/01/04 08:03:43;;;;;;;1.85;0.88;;;;;;;8.28;100.00;101508.31;4927630;29;20052;-84
2024/01/04 08:06:13;;;;;;;2.85;0.60;;;;;;;8.31;100.00;101511.03;4937496;29;20048;-84
2024/01/04 08:08:43;;;;;;;5.05;0.80;;;;;;;8.31;100.00;101519.63;4933333;29;20055;-84
2024/01/04 08:11:15;;;;;;;2.03;0.70;;;;;;;8.31;100.00;101511.03;4935301;29;20064;-86
2024/01/04 08:13:46;;;;;;;4.18;0.75;;;;;;;8.29;100.00;101512.63;4935267;29;20068;-85
2024/01/04 08:16:15;;;;;;;0.80;0.40;;;;;;;8.25;100.00;101505.59;4934678;29;20152;-85
2024/01/04 08:18:44;;;;;;;3.03;0.60;;;;;;;8.27;100.00;101516.81;4934589;29;20099;-84
2024/01/04 08:21:18;;;;;;;2.78;1.17;;;;;;;8.25;100.00;101503.88;4934240;29;20062;-84
2024/01/04 08:23:51;;;;;;;1.83;0.55;;;;;;;8.30;100.00;101514.44;4943122;29;20087;-85
2024/01/04 08:26:20;;;;;;;1.35;1.08;;;;;;;8.29;100.00;101504.91;4930427;29;20487;-84
2024/01/04 08:29:00;;;;;;;4.85;0.80;;;;;;;8.29;100.00;101513.53;4941300;29;20055;-84
2024/01/04 08:31:29;;;;;;;3.15;0.80;;;;;;;8.29;100.00;101515.22;4940912;29;20060;-85
2024/01/04 08:33:58;;;;;;;8.18;1.27;;;;;;;8.28;100.00;101510.88;4935811;29;20491;-85
2024/01/04 08:36:27;;;;;;;2.92;0.70;;;;;;;8.25;100.00;101510.75;4938435;29;20087;-85
2024/01/04 08:38:57;;;;;;;2.60;0.73;;;;;;;8.28;100.00;101521.19;4938745;29;20066;-86
2024/01/04 08:41:27;;;;;;;0.90;0.77;;;;;;;8.29;100.00;101518.69;4961327;28;20058;-84
2024/01/04 08:43:58;;;;;;;2.17;0.50;;;;;;;8.31;100.00;101526.50;4964609;28;20042;-84
2024/01/04 08:46:37;;;;;;;;;;;;;;;;;;;;;
2024/01/04 08:49:07;;;;;;;1.55;0.80;;;;;;;8.30;100.00;101524.75;4951151;28;20074;-85
2024/01/04 08:51:36;;;;;;;2.05;0.82;;;;;;;8.34;100.00;101527.56;4951078;29;20055;-86
2024/01/04 08:54:05;;;;;;;1.75;0.47;;;;;;;8.36;100.00;101530.19;4951851;29;20054;-86
2024/01/04 08:56:35;;;;;;;2.15;0.50;;;;;;;8.37;100.00;101527.69;4956251;28;20051;-86
2024/01/04 08:59:07;;;;;;;1.98;0.40;;;;;;;8.33;100.00;101530.03;4950960;29;20058;-85
2024/01/04 09:01:36;;;;;;;3.87;0.40;;;;;;;8.33;100.00;101537.78;4950970;29;20055;-86
2024/01/04 09:04:24;;;;;;;4.32;0.65;;;;;;;8.22;100.00;101520.88;4953663;28;20094;-85
2024/01/04 09:06:53;;;;;;;3.47;1.13;;;;;;;8.34;100.00;101534.41;4940268;29;20063;-84
2024/01/04 09:09:22;;;;;;;1.55;0.70;;;;;;;8.31;100.00;101526.50;4951585;29;20048;-84
2024/01/04 09:11:51;;;;;;;4.78;0.82;;;;;;;8.22;100.00;101521.75;4951734;28;20051;-85
2024/01/04 09:14:30;;;;;;;2.95;0.30;;;;;;;8.26;100.00;101526.25;4948847;29;20055;-86
2024/01/04 09:16:59;;;;;;;4.30;0.60;;;;;;;8.26;100.00;101525.38;4955476;28;20552;-87
2024/01/04 09:19:28;;;;;;;3.63;0.55;;;;;;;8.25;100.00;101523.63;4952572;29;20051;-86
2024/01/04 09:22:04;;;;;;;1.27;0.70;;;;;;;8.22;100.00;101520.88;4951652;28;20071;-88
2024/01/04 09:24:34;;;;;;;3.78;0.77;;;;;;;8.21;100.00;101529.44;4953634;28;20516;-86
2024/01/04 09:27:03;;;;;;;3.40;0.80;;;;;;;8.23;100.00;101532.97;4953858;29;20047;-86
2024/01/04 09:29:34;;;;;;;3.33;0.73;;;;;;;8.22;100.00;101528.59;4957097;28;20062;-87
2024/01/04 09:32:08;;;;;;;0.82;0.38;;;;;;;8.22;100.00;101532.06;4954735;29;20051;-86
2024/01/04 09:34:38;;;;;;;1.65;0.50;;;;;;;8.24;100.00;101529.56;4953913;28;20051;-87
2024/01/04 09:37:06;;;;;;;3.03;0.30;;;;;;;8.18;100.00;101532.75;4948704;28;20102;-87
2024/01/04 09:39:39;;;;;;;4.35;0.60;;;;;;;8.11;100.00;101528.06;4943514;28;20069;-87
2024/01/04 09:42:13;;;;;;;6.55;1.05;;;;;;;8.08;100.00;101525.31;4934063;29;20055;-87
2024/01/04 09:44:46;;;;;;;1.20;0.43;;;;;;;8.08;100.00;101533.94;4948285;29;20055;-86
2024/01/04 09:47:26;;;;;;;;;;;;;;;;;;;;;
2024/01/04 09:49:55;;;;;;;3.75;0.50;;;;;;;7.89;100.00;101541.50;4936248;29;19922;-86
2024/01/04 09:52:26;;;;;;;1.20;0.47;;;;;;;7.92;100.00;101544.25;4936317;29;20055;-85
2024/01/04 09:54:57;;;;;;;2.17;0.52;;;;;;;7.92;100.00;101546.81;4953433;29;20054;-86
2024/01/04 09:57:30;;;;;;;7.37;0.50;;;;;;;7.91;100.00;101552.78;4952402;28;20055;-86
2024/01/04 10:00:01;;;;;;;2.17;0.30;;;;;;;7.93;100.00;101558.91;4919159;29;20135;-85
2024/01/04 10:02:30;;;;;;;4.80;0.52;;;;;;;7.90;100.00;101551.00;4920451;29;20125;-86
2024/01/04 10:05:02;;;;;;;1.00;0.57;;;;;;;7.82;100.00;101542.00;4928277;29;20147;-86
2024/01/04 10:07:36;;;;;;;4.75;0.65;;;;;;;7.89;100.00;101546.66;4929005;29;20047;-86
2024/01/04 10:10:13;;;;;;;4.20;0.47;;;;;;;7.87;100.00;101543.13;4937301;29;20123;-86
2024/01/04 10:12:54;;;;;;;3.28;0.57;;;;;;;7.89;100.00;101551.81;4920396;29;20055;-86
2024/01/04 10:15:25;;;;;;;3.92;0.50;;;;;;;7.82;100.00;101542.00;4932986;29;20497;-85
2024/01/04 10:17:55;;;;;;;1.73;0.65;;;;;;;7.93;100.00;101552.06;4932342;29;20056;-86
2024/01/04 10:20:25;;;;;;;3.25;0.43;;;;;;;7.93;100.00;101556.34;4931561;29;20062;-85
2024/01/04 10:22:54;;;;;;;3.95;0.40;;;;;;;7.94;100.00;101547.78;4939262;29;20051;-85
2024/01/04 10:25:25;;;;;;;1.35;0.47;;;;;;;7.91;100.00;101553.69;4930800;29;20047;-84
2024/01/04 10:27:58;;;;;;;2.63;0.40;;;;;;;7.85;100.00;101547.31;4931266;29;20146;-87
2024/01/04 10:30:38;;;;;;;1.35;0.45;;;;;;;7.86;100.00;101541.38;4943397;29;20086;-85
2024/01/04 10:33:07;;;;;;;2.67;0.70;;;;;;;7.85;100.00;101544.72;4938925;29;20043;-86
2024/01/04 10:35:37;;;;;;;4.10;0.90;;;;;;;7.80;100.00;101536.75;4926417;29;20058;-86
2024/01/04 10:38:08;;;;;;;3.30;0.90;;;;;;;7.84;100.00;101543.84;4943904;29;20139;-86
2024/01/04 10:40:37;;;;;;;0.70;0.38;;;;;;;7.81;100.00;101543.69;4947710;28;20044;-85
2024/01/04 10:43:07;;;;;;;0.82;0.50;;;;;;;7.81;100.00;101542.78;4954473;28;20079;-85
2024/01/04 10:45:38;;;;;;;1.02;0.30;;;;;;;7.82;100.00;101545.47;4967388;28;20055;-86
2024/01/04 10:48:12;;;;;;;2.08;0.30;;;;;;;7.80;100.00;101548.75;4952367;29;20070;-86
2024/01/04 10:50:43;;;;;;;3.10;0.63;;;;;;;7.79;100.00;101545.31;4951510;28;20079;-87
2024/01/04 10:53:13;;;;;;;0.65;0.40;;;;;;;7.74;100.00;101555.38;4953198;28;20043;-88
2024/01/04 10:55:44;;;;;;;1.65;0.60;;;;;;;7.74;100.00;101552.78;4954314;28;20115;-88
2024/01/04 10:58:17;;;;;;;1.13;0.15;;;;;;;7.79;100.00;101549.53;4954738;29;20059;-87
2024/01/04 11:00:50;;;;;;;2.67;0.30;;;;;;;7.76;100.00;101545.13;4953483;28;20055;-88
2024/01/04 11:03:20;;;;;;;4.70;0.50;;;;;;;7.76;100.00;101546.03;4945379;29;20114;-86
2024/01/04 11:05:58;;;;;;;1.98;0.60;;;;;;;7.78;100.00;101545.22;4948384;29;20051;-87
2024/01/04 11:08:28;;;;;;;1.75;0.40;;;;;;;7.76;100.00;101538.31;4936948;29;20059;-87
2024/01/04 11:10:57;;;;;;;3.65;0.45;;;;;;;7.74;100.00;101528.69;4940919;29;20074;-87
2024/01/04 11:13:26;;;;;;;3.78;0.50;;;;;;;7.75;100.00;101536.50;4940571;28;20066;-87
2024/01/04 11:16:21;;;;;;;2.08;0.70;;;;;;;7.68;100.00;101537.00;4942969;28;20047;-87
2024/01/04 11:19:06;;;;;;;2.25;0.73;;;;;;;7.66;100.00;101543.75;4954668;28;20047;-87
2024/01/04 11:22:00;;;;;;;3.50;0.75;;;;;;;7.66;100.00;101538.59;4955928;28;20102;-86
2024/01/04 11:24:51;;;;;;;4.18;0.90;;;;;;;7.69;100.00;101537.88;4945480;28;20062;-86
2024/01/04 11:27:21;;;;;;;2.35;0.65;;;;;;;7.72;100.00;101544.09;4954050;29;20103;-87
2024/01/04 11:29:51;;;;;;;1.48;0.75;;;;;;;7.69;100.00;101533.59;4950311;29;20058;-86
2024/01/04 11:32:32;;;;;;;0.40;0.28;;;;;;;7.67;100.00;101536.91;4952135;28;20138;-85
2024/01/04 11:35:02;;;;;;;1.60;0.68;;;;;;;7.62;100.00;101510.91;4947807;28;20054;-90
2024/01/04 11:37:35;;;;;;;1.02;0.40;;;;;;;7.67;100.00;101526.59;4950871;28;20058;-88
2024/01/04 11:40:14;;;;;;;;;;;;;;;7.66;100.00;101528.28;4952638;29;20055;-88
2024/01/04 11:42:44;;;;;;;2.35;0.47;;;;;;;7.63;100.00;101533.28;4950530;28;19930;-87
2024/01/04 11:45:17;;;;;;;1.00;0.20;;;;;;;7.57;100.00;101526.91;4952090;28;20078;-87
2024/01/04 11:47:55;;;;;;;1.20;0.50;;;;;;;7.58;100.00;101529.56;4953328;28;20062;-88
2024/01/04 11:50:28;;;;;;;2.38;0.63;;;;;;;7.54;100.00;101527.66;4949614;28;20075;-89
2024/01/04 11:53:14;;;;;;;3.72;0.45;;;;;;;7.45;100.00;101515.16;4954113;29;20051;-87
2024/01/04 11:55:43;;;;;;;0.98;0.20;;;;;;;7.50;100.00;101525.69;4945392;29;20130;-88
2024/01/04 11:58:15;;;;;;;4.10;0.60;;;;;;;7.51;100.00;101522.31;4950648;29;20059;-87
2024/01/04 12:00:55;;;;;;;0.65;0.30;;;;;;;7.45;100.00;101516.84;4949516;28;20071;-86
2024/01/04 12:03:31;;;;;;;1.65;0.40;;;;;;;7.43;100.00;101508.16;4948460;28;20065;-87
2024/01/04 12:06:02;;;;;;;2.35;0.52;;;;;;;7.47;100.00;101515.25;4950891;28;20076;-87
2024/01/04 12:08:35;;;;;;;0.52;0.10;;;;;;;7.50;100.00;101512.81;4946673;29;20063;-87
2024/01/04 12:11:05;;;;;;;0.30;0.30;;;;;;;7.50;100.00;101515.41;4946653;29;20106;-87
2024/01/04 12:13:34;;;;;;;3.53;0.38;;;;;;;7.44;100.00;101512.47;4947395;29;20054;-88
2024/01/04 12:16:06;;;;;;;0.55;0.10;;;;;;;7.38;100.00;101509.59;4961964;28;20054;-86
2024/01/04 12:18:40;;;;;;;0.90;0.20;;;;;;;7.44;100.00;101509.91;4947671;28;20051;-86
2024/01/04 12:21:10;;;;;;;2.80;0.68;;;;;;;7.41;100.00;101499.44;4950697;28;20055;-86
2024/01/04 12:23:39;;;;;;;0.43;0.30;;;;;;;7.41;100.00;101494.31;4949579;28;20058;-86
2024/01/04 12:26:12;;;;;;;0.85;0.15;;;;;;;7.39;100.00;101501.06;4947456;28;20098;-87
2024/01/04 12:28:42;;;;;;;2.47;0.43;;;;;;;7.36;100.00;101493.19;4947759;28;20130;-86
2024/01/04 12:31:11;;;;;;;1.65;0.38;;;;;;;7.36;100.00;101499.19;4949282;28;20465;-85
2024/01/04 12:33:45;;;;;;;2.55;0.30;;;;;;;7.38;100.00;101495.03;4944766;28;20099;-86
2024/01/04 12:36:22;;;;;;;2.97;0.30;;;;;;;7.37;100.00;101497.50;4949508;28;20051;-86
2024/01/04 12:38:52;;;;;;;7.75;0.50;;;;;;;7.40;100.00;101505.38;4947235;28;20051;-86
2024/01/04 12:41:28;;;;;;;3.25;0.25;;;;;;;7.40;100.00;101503.72;4942042;29;20056;-85
2024/01/04 12:44:00;;;;;;;1.85;0.57;;;;;;;7.37;100.00;101502.66;4938361;29;20048;-84
2024/01/04 12:46:30;;;;;;;1.33;0.50;;;;;;;7.43;100.00;101513.31;4938556;29;20527;-86
2024/01/04 12:49:08;;;;;;;1.30;0.50;;;;;;;7.43;100.00;101508.16;4934922;29;20087;-85
2024/01/04 12:51:40;;;;;;;3.20;0.47;;;;;;;7.37;100.00;101498.38;4937326;29;20055;-86
2024/01/04 12:54:10;;;;;;;0.25;0.08;;;;;;;7.46;100.00;101503.16;4932582;29;20139;-86
2024/01/04 12:56:39;;;;;;;2.10;0.45;;;;;;;7.43;100.00;101488.44;4941964;29;20146;-88
2024/01/04 12:59:09;;;;;;;1.92;0.63;;;;;;;7.46;100.00;101492.84;4937594;29;20060;-88
2024/01/04 13:01:45;;;;;;;2.50;0.22;;;;;;;7.46;100.00;101486.00;4938189;29;20055;-88
2024/01/04 13:04:16;;;;;;;2.35;0.65;;;;;;;7.48;100.00;101486.09;4933762;29;20502;-87
2024/01/04 13:06:47;;;;;;;2.72;0.52;;;;;;;7.49;100.00;101483.63;4938908;29;20051;-86
2024/01/04 13:09:25;;;;;;;3.05;0.20;;;;;;;7.48;100.00;101478.38;4932430;29;20055;-85
2024/01/04 13:11:54;;;;;;;0.40;0.30;;;;;;;7.49;100.00;101481.03;4932986;29;20060;-87
2024/01/04 13:14:23;;;;;;;0.75;0.47;;;;;;;7.40;100.00;101475.41;4940884;29;20138;-86
2024/01/04 13:16:53;;;;;;;1.95;0.50;;;;;;;7.34;100.00;101475.94;4933759;29;20139;-86
2024/01/04 13:19:26;;;;;;;4.40;0.57;;;;;;;7.32;100.00;101468.94;4936075;29;20056;-86